Time;durP1;ratioP1;P1;durP2;ratioP2;P2;SDS_P1;SDS_P2;PMS_P1;PMS_P2;Temp;Humidity;BMP_temperature;BMP_pressure;BME280_temperature;BME280_humidity;BME280_pressure;Samples;Min_cycle;Max_cycle;Signal;HPM_P1;HPM_P2
2024/01/19 00:01:29;;;;;;;1.60;1.50;;;3.40;99.90;;;;;;7396883;19;20213;-86
2024/01/19 00:03:56;;;;;;;1.57;1.47;;;3.40;99.90;;;;;;7396704;19;20142;-87
2024/01/19 00:06:22;;;;;;;4.63;2.27;;;3.40;99.90;;;;;;7396421;19;20119;-87
2024/01/19 00:08:49;;;;;;;2.60;1.70;;;3.20;99.90;;;;;;7397543;19;20153;-89
2024/01/19 00:11:18;;;;;;;2.33;2.10;;;3.40;99.90;;;;;;7397644;19;20144;-86
2024/01/19 00:13:44;;;;;;;3.17;2.40;;;3.40;99.90;;;;;;7395866;19;20139;-86
2024/01/19 00:16:10;;;;;;;3.83;2.37;;;3.40;99.90;;;;;;7399420;19;20159;-86
2024/01/19 00:18:36;;;;;;;2.43;2.23;;;3.30;99.90;;;;;;7392949;19;20134;-88
2024/01/19 00:21:02;;;;;;;1.93;1.50;;;3.30;99.90;;;;;;7392042;19;20142;-87
2024/01/19 00:23:27;;;;;;;3.43;2.70;;;3.40;99.90;;;;;;7393584;19;20142;-87
2024/01/19 00:25:53;;;;;;;3.57;1.83;;;3.50;99.90;;;;;;7392451;19;20163;-86
2024/01/19 00:28:19;;;;;;;1.93;1.83;;;3.40;99.90;;;;;;7391735;19;20190;-86
2024/01/19 00:30:45;;;;;;;2.93;2.57;;;3.40;99.90;;;;;;7391318;19;20143;-86
2024/01/19 00:33:11;;;;;;;2.23;1.93;;;3.50;99.90;;;;;;7392046;19;20143;-87
2024/01/19 00:35:37;;;;;;;1.87;1.60;;;3.40;99.90;;;;;;7393309;19;20159;-87
2024/01/19 00:38:03;;;;;;;1.47;1.17;;;3.40;99.90;;;;;;7392113;19;20142;-87
2024/01/19 00:40:29;;;;;;;1.93;1.77;;;3.50;99.90;;;;;;7393611;19;20148;-86
2024/01/19 00:42:57;;;;;;;2.00;1.80;;;3.40;99.90;;;;;;7392671;19;20135;-86
2024/01/19 00:45:23;;;;;;;3.23;2.13;;;3.40;99.90;;;;;;7394102;19;20699;-86
2024/01/19 00:47:49;;;;;;;3.77;2.10;;;3.60;99.90;;;;;;7391811;19;20166;-85
2024/01/19 00:50:15;;;;;;;2.57;2.23;;;3.50;99.90;;;;;;7391156;19;20154;-87
2024/01/19 00:52:40;;;;;;;2.03;1.87;;;3.40;99.90;;;;;;7391653;19;20157;-85
2024/01/19 00:55:06;;;;;;;3.80;2.33;;;3.50;99.90;;;;;;7393166;19;20157;-85
2024/01/19 00:57:32;;;;;;;2.13;1.73;;;3.40;99.90;;;;;;7393450;19;20171;-84
2024/01/19 00:59:58;;;;;;;3.10;1.83;;;3.40;99.90;;;;;;7394218;19;20134;-85
2024/01/19 01:02:27;;;;;;;1.30;1.20;;;3.50;99.90;;;;;;7392025;19;20143;-85
2024/01/19 01:04:56;;;;;;;1.97;1.77;;;3.40;99.90;;;;;;7392446;19;20178;-86
2024/01/19 01:07:22;;;;;;;1.83;1.60;;;3.50;99.90;;;;;;7394497;19;20158;-85
2024/01/19 01:09:48;;;;;;;1.70;1.43;;;3.40;99.90;;;;;;7402387;19;20130;-88
2024/01/19 01:12:14;;;;;;;2.53;1.97;;;3.40;99.90;;;;;;7403235;19;20680;-84
2024/01/19 01:14:40;;;;;;;2.70;1.87;;;3.50;99.90;;;;;;7404154;19;20504;-86
2024/01/19 01:17:06;;;;;;;2.23;2.03;;;3.50;99.90;;;;;;7402540;19;20138;-85
2024/01/19 01:19:32;;;;;;;2.40;1.83;;;3.50;99.90;;;;;;7398995;19;20139;-85
2024/01/19 01:21:59;;;;;;;1.47;1.37;;;3.50;99.90;;;;;;7402962;19;20139;-88
2024/01/19 01:24:24;;;;;;;1.57;1.40;;;3.40;99.90;;;;;;7401891;19;20610;-89
2024/01/19 01:26:50;;;;;;;2.13;2.03;;;3.50;99.90;;;;;;7405207;19;20211;-88
2024/01/19 01:29:16;;;;;;;3.47;2.93;;;3.50;99.90;;;;;;7403865;19;20214;-84
2024/01/19 01:31:42;;;;;;;2.50;2.13;;;3.40;99.90;;;;;;7403184;19;20135;-88
2024/01/19 01:34:09;;;;;;;1.17;1.10;;;3.30;99.90;;;;;;7402910;19;20238;-87
2024/01/19 01:36:35;;;;;;;1.93;1.50;;;3.30;99.90;;;;;;7402912;19;20154;-89
2024/01/19 01:39:01;;;;;;;3.13;2.70;;;3.40;99.90;;;;;;7399958;19;20612;-88
2024/01/19 01:41:27;;;;;;;1.90;1.77;;;3.40;99.90;;;;;;7402055;19;20154;-88
2024/01/19 01:43:53;;;;;;;0.90;0.90;;;3.40;99.90;;;;;;7403083;19;20222;-88
2024/01/19 01:46:19;;;;;;;1.50;1.40;;;3.40;99.90;;;;;;7401947;19;20154;-88
2024/01/19 01:48:45;;;;;;;2.30;2.07;;;3.50;99.90;;;;;;7408768;19;20143;-89
2024/01/19 01:51:14;;;;;;;3.43;2.43;;;3.50;99.90;;;;;;7406340;19;20283;-87
2024/01/19 01:53:40;;;;;;;2.97;2.73;;;3.40;99.90;;;;;;7410311;19;20131;-87
2024/01/19 01:56:06;;;;;;;1.27;1.17;;;3.40;99.90;;;;;;7406806;19;20138;-87
2024/01/19 01:58:32;;;;;;;2.50;2.10;;;3.40;99.90;;;;;;7406172;19;20131;-86
2024/01/19 02:00:58;;;;;;;1.77;1.67;;;3.40;99.90;;;;;;7403688;19;20447;-88
2024/01/19 02:03:24;;;;;;;1.93;1.50;;;3.50;99.90;;;;;;7402083;19;20165;-87
2024/01/19 02:05:49;;;;;;;3.80;2.53;;;3.40;99.90;;;;;;7400047;19;20253;-88
2024/01/19 02:08:15;;;;;;;3.13;2.03;;;3.40;99.90;;;;;;7401782;19;20142;-88
2024/01/19 02:10:41;;;;;;;1.80;1.60;;;3.40;99.90;;;;;;7402151;19;20555;-87
2024/01/19 02:13:07;;;;;;;3.00;1.90;;;3.40;99.90;;;;;;7402335;19;20139;-88
2024/01/19 02:15:35;;;;;;;6.93;2.47;;;3.40;99.90;;;;;;7400281;19;20138;-88
2024/01/19 02:18:01;;;;;;;1.73;1.63;;;3.40;99.90;;;;;;7400790;19;20177;-88
2024/01/19 02:20:26;;;;;;;2.43;1.83;;;3.40;99.90;;;;;;7398376;19;20150;-87
2024/01/19 02:22:54;;;;;;;2.07;1.80;;;3.40;99.90;;;;;;7399261;19;20134;-86
2024/01/19 02:25:20;;;;;;;2.30;2.10;;;3.30;99.90;;;;;;7397462;19;20181;-86
2024/01/19 02:27:46;;;;;;;2.13;1.83;;;3.40;99.90;;;;;;7399836;19;20139;-87
2024/01/19 02:30:13;;;;;;;2.27;2.17;;;3.40;99.90;;;;;;7401152;19;20162;-87
2024/01/19 02:32:38;;;;;;;2.47;2.13;;;3.40;99.90;;;;;;7399885;19;20155;-84
2024/01/19 02:35:05;;;;;;;2.70;1.47;;;3.40;99.90;;;;;;7401143;19;20139;-87
2024/01/19 02:37:31;;;;;;;2.23;2.03;;;3.40;99.90;;;;;;7399306;19;21367;-87
2024/01/19 02:39:56;;;;;;;2.77;1.67;;;3.40;99.90;;;;;;7397888;19;20214;-86
2024/01/19 02:42:22;;;;;;;2.17;1.33;;;3.30;99.90;;;;;;7400571;19;20906;-85
2024/01/19 02:44:48;;;;;;;1.27;1.17;;;3.30;99.90;;;;;;7400173;19;20127;-86
2024/01/19 02:47:13;;;;;;;1.60;1.50;;;3.40;99.90;;;;;;7399598;19;20130;-87
2024/01/19 02:49:39;;;;;;;2.30;2.07;;;3.40;99.90;;;;;;7398109;19;20146;-87
2024/01/19 02:52:05;;;;;;;1.27;1.17;;;3.40;99.90;;;;;;7400218;19;20131;-87
2024/01/19 02:54:31;;;;;;;1.93;1.63;;;3.40;99.90;;;;;;7399986;19;20175;-86
2024/01/19 02:56:57;;;;;;;2.67;1.87;;;3.40;99.90;;;;;;7398822;19;20692;-87
2024/01/19 02:59:23;;;;;;;2.00;1.40;;;3.30;99.90;;;;;;7397010;19;20151;-86
2024/01/19 03:01:50;;;;;;;1.80;1.67;;;3.30;99.90;;;;;;7397168;19;20155;-86
2024/01/19 03:04:16;;;;;;;1.77;1.40;;;3.40;99.90;;;;;;7397435;19;20139;-88
2024/01/19 03:06:41;;;;;;;2.53;2.33;;;3.40;99.90;;;;;;7398705;19;20651;-88
2024/01/19 03:09:07;;;;;;;1.63;1.50;;;3.40;99.90;;;;;;7399800;19;20568;-89
2024/01/19 03:11:33;;;;;;;2.80;2.00;;;3.40;99.90;;;;;;7398363;19;20472;-88
2024/01/19 03:13:59;;;;;;;1.40;1.30;;;3.40;99.90;;;;;;7397278;19;20615;-87
2024/01/19 03:16:24;;;;;;;2.10;1.63;;;3.40;99.90;;;;;;7399979;19;20146;-87
2024/01/19 03:18:54;;;;;;;1.43;1.33;;;3.40;99.90;;;;;;7398144;19;20146;-88
2024/01/19 03:21:20;;;;;;;1.73;1.63;;;3.30;99.90;;;;;;7398115;19;20138;-89
2024/01/19 03:23:46;;;;;;;1.50;1.40;;;3.20;99.90;;;;;;7399347;19;20210;-88
2024/01/19 03:26:14;;;;;;;2.40;2.17;;;3.10;99.90;;;;;;7397055;19;20131;-87
2024/01/19 03:28:39;;;;;;;2.50;1.80;;;3.10;99.90;;;;;;7399302;19;20127;-87
2024/01/19 03:31:05;;;;;;;5.63;2.73;;;3.40;99.90;;;;;;7396050;19;20550;-89
2024/01/19 03:33:31;;;;;;;2.13;1.67;;;3.20;99.90;;;;;;7397361;19;20158;-86
2024/01/19 03:35:56;;;;;;;1.27;1.07;;;3.20;99.90;;;;;;7398147;19;20138;-86
2024/01/19 03:38:22;;;;;;;1.10;1.10;;;3.30;99.90;;;;;;7398759;19;20639;-88
2024/01/19 03:40:49;;;;;;;1.63;1.53;;;3.30;99.90;;;;;;7397591;19;20163;-88
2024/01/19 03:43:15;;;;;;;1.37;1.23;;;3.30;99.90;;;;;;7397331;19;20596;-88
2024/01/19 03:45:40;;;;;;;1.93;1.77;;;3.20;99.90;;;;;;7395795;19;20139;-86
2024/01/19 03:48:07;;;;;;;2.30;2.00;;;3.10;99.90;;;;;;7397087;19;20138;-87
2024/01/19 03:50:33;;;;;;;1.70;1.60;;;3.20;99.90;;;;;;7397266;19;20150;-87
2024/01/19 03:52:58;;;;;;;1.50;1.40;;;3.20;99.90;;;;;;7396516;19;20230;-87
2024/01/19 03:55:24;;;;;;;2.07;1.57;;;3.30;99.90;;;;;;7395078;19;20154;-87
2024/01/19 03:57:50;;;;;;;2.37;1.87;;;3.30;99.90;;;;;;7396753;19;20202;-86
2024/01/19 04:00:16;;;;;;;1.93;1.70;;;3.40;99.90;;;;;;7397298;19;20143;-88
2024/01/19 04:02:41;;;;;;;1.60;1.50;;;3.20;99.90;;;;;;7397467;19;20145;-86
2024/01/19 04:05:07;;;;;;;2.97;2.27;;;3.20;99.90;;;;;;7396106;19;20202;-86
2024/01/19 04:07:33;;;;;;;1.83;1.73;;;3.20;99.90;;;;;;7394984;19;20213;-87
2024/01/19 04:09:59;;;;;;;2.03;1.83;;;3.20;99.90;;;;;;7396574;19;20783;-87
2024/01/19 04:12:25;;;;;;;2.17;1.87;;;3.20;99.90;;;;;;7395915;19;20135;-87
2024/01/19 04:14:51;;;;;;;3.40;2.23;;;3.20;99.90;;;;;;7394621;19;20135;-86
2024/01/19 04:17:17;;;;;;;1.43;1.33;;;3.20;99.90;;;;;;7395441;19;20142;-86
2024/01/19 04:19:42;;;;;;;2.03;1.63;;;3.20;99.90;;;;;;7393771;19;20202;-87
2024/01/19 04:22:08;;;;;;;1.53;1.43;;;3.20;99.90;;;;;;7397855;19;20138;-87
2024/01/19 04:24:34;;;;;;;2.23;1.53;;;3.20;99.90;;;;;;7398783;19;20131;-86
2024/01/19 04:26:59;;;;;;;2.27;1.67;;;3.10;99.90;;;;;;7397336;19;20497;-87
2024/01/19 04:29:25;;;;;;;2.60;2.40;;;3.20;99.90;;;;;;7396375;19;20154;-86
2024/01/19 04:31:52;;;;;;;2.20;1.83;;;3.10;99.90;;;;;;7399084;19;20198;-85
2024/01/19 04:34:18;;;;;;;1.20;1.07;;;3.10;99.90;;;;;;7395344;19;20125;-87
2024/01/19 04:36:45;;;;;;;1.43;1.27;;;3.10;99.90;;;;;;7396357;19;20154;-87
2024/01/19 04:39:11;;;;;;;1.30;1.20;;;3.10;99.90;;;;;;7395025;19;20171;-87
2024/01/19 04:41:37;;;;;;;1.43;1.33;;;3.10;99.90;;;;;;7395455;19;20134;-85
2024/01/19 04:44:03;;;;;;;3.60;2.90;;;3.10;99.90;;;;;;7394332;19;20126;-86
2024/01/19 04:46:29;;;;;;;1.50;1.13;;;3.00;99.90;;;;;;7395390;19;20487;-87
2024/01/19 04:48:55;;;;;;;1.53;1.23;;;3.20;99.90;;;;;;7393887;19;20495;-86
2024/01/19 04:51:20;;;;;;;2.43;2.23;;;3.10;99.90;;;;;;7393368;19;20484;-86
2024/01/19 04:53:46;;;;;;;1.90;1.70;;;3.20;99.90;;;;;;7396980;19;20138;-87
2024/01/19 04:56:12;;;;;;;1.33;1.23;;;3.00;99.90;;;;;;7396471;19;20253;-87
2024/01/19 04:58:39;;;;;;;1.37;1.23;;;2.90;99.90;;;;;;7399646;19;20217;-85
2024/01/19 05:01:05;;;;;;;1.80;1.43;;;3.10;99.90;;;;;;7400817;19;20156;-85
2024/01/19 05:03:31;;;;;;;1.63;1.27;;;3.10;99.90;;;;;;7401076;19;20198;-86
2024/01/19 05:05:59;;;;;;;2.37;1.60;;;3.10;99.90;;;;;;7397200;19;20475;-86
2024/01/19 05:08:25;;;;;;;2.47;2.27;;;3.10;99.90;;;;;;7395314;19;20130;-88
2024/01/19 05:10:51;;;;;;;1.53;1.43;;;3.10;99.90;;;;;;7395681;19;20130;-88
2024/01/19 05:13:17;;;;;;;2.17;1.83;;;3.20;99.90;;;;;;7395514;19;20130;-88
2024/01/19 05:15:43;;;;;;;1.83;1.43;;;3.10;99.90;;;;;;7395527;19;20446;-87
2024/01/19 05:18:08;;;;;;;4.93;1.77;;;3.20;99.90;;;;;;7394765;19;20197;-88
2024/01/19 05:20:34;;;;;;;2.20;1.90;;;3.20;99.90;;;;;;7393870;19;20134;-88
2024/01/19 05:23:00;;;;;;;1.90;1.53;;;3.20;99.90;;;;;;7394368;19;20130;-86
2024/01/19 05:25:26;;;;;;;2.67;1.77;;;3.20;99.90;;;;;;7394746;19;20123;-87
2024/01/19 05:27:53;;;;;;;1.03;1.03;;;3.30;99.90;;;;;;7393871;19;20139;-88
2024/01/19 05:30:20;;;;;;;1.93;1.63;;;3.20;99.90;;;;;;7394230;19;20144;-87
2024/01/19 05:32:46;;;;;;;8.40;2.60;;;3.20;99.90;;;;;;7394794;19;20135;-87
2024/01/19 05:35:12;;;;;;;1.93;1.30;;;3.20;99.90;;;;;;7395251;19;20131;-89
2024/01/19 05:37:37;;;;;;;2.07;1.50;;;3.30;99.90;;;;;;7394525;19;20153;-87
2024/01/19 05:40:05;;;;;;;2.47;1.93;;;3.20;99.90;;;;;;7393343;19;20127;-88
2024/01/19 05:42:32;;;;;;;3.23;2.33;;;3.20;99.90;;;;;;7394096;19;20127;-91
2024/01/19 05:44:58;;;;;;;1.40;1.20;;;3.20;99.90;;;;;;7395375;19;20146;-87
2024/01/19 05:47:24;;;;;;;1.27;0.93;;;3.20;99.90;;;;;;7393704;19;20188;-89
2024/01/19 05:49:50;;;;;;;1.20;1.10;;;3.20;99.90;;;;;;7394379;19;20174;-87
2024/01/19 05:52:15;;;;;;;1.63;1.53;;;3.10;99.90;;;;;;7395288;19;20476;-89
2024/01/19 05:54:41;;;;;;;1.87;1.73;;;3.20;99.90;;;;;;7395756;19;20663;-87
2024/01/19 05:57:09;;;;;;;1.43;1.27;;;3.20;99.90;;;;;;7402224;19;20162;-88
2024/01/19 05:59:38;;;;;;;2.73;1.97;;;3.20;99.90;;;;;;7397760;19;20723;-81
2024/01/19 06:02:04;;;;;;;2.63;2.43;;;3.20;99.90;;;;;;7398105;19;20142;-82
2024/01/19 06:04:33;;;;;;;1.97;1.80;;;3.20;99.90;;;;;;7398565;19;20179;-82
2024/01/19 06:07:02;;;;;;;4.10;1.97;;;3.20;99.90;;;;;;7398038;19;20743;-83
2024/01/19 06:09:29;;;;;;;2.60;1.83;;;3.20;99.90;;;;;;7398610;19;20152;-82
2024/01/19 06:11:55;;;;;;;1.27;1.23;;;3.30;99.90;;;;;;7400779;19;20147;-83
2024/01/19 06:14:20;;;;;;;2.80;2.50;;;3.10;99.90;;;;;;7398064;19;20907;-83
2024/01/19 06:16:46;;;;;;;2.27;1.50;;;3.10;99.90;;;;;;7399187;19;20235;-82
2024/01/19 06:19:12;;;;;;;1.20;1.10;;;3.10;99.90;;;;;;7399294;19;20830;-81
2024/01/19 06:21:38;;;;;;;1.70;1.57;;;3.10;99.90;;;;;;7399214;19;20170;-82
2024/01/19 06:24:04;;;;;;;2.40;2.03;;;3.10;99.90;;;;;;7398046;19;20153;-82
2024/01/19 06:26:32;;;;;;;0.87;0.87;;;3.20;99.90;;;;;;7399500;19;20149;-82
2024/01/19 06:28:58;;;;;;;5.07;2.27;;;3.20;99.90;;;;;;7399376;19;20222;-83
2024/01/19 06:31:24;;;;;;;1.20;1.10;;;3.20;99.90;;;;;;7396404;19;20134;-80
2024/01/19 06:33:50;;;;;;;1.93;1.60;;;3.20;99.90;;;;;;7397675;19;20141;-80
2024/01/19 06:36:15;;;;;;;3.63;1.87;;;3.30;99.90;;;;;;7396487;19;20233;-81
2024/01/19 06:38:41;;;;;;;2.30;1.33;;;3.20;99.90;;;;;;7397250;19;20135;-79
2024/01/19 06:41:07;;;;;;;2.33;1.90;;;3.20;99.90;;;;;;7396147;19;20134;-80
2024/01/19 06:43:33;;;;;;;1.10;0.90;;;3.20;99.90;;;;;;7398334;19;20135;-80
2024/01/19 06:45:59;;;;;;;2.20;1.67;;;3.10;99.90;;;;;;7397947;19;20291;-79
2024/01/19 06:48:25;;;;;;;1.63;1.37;;;3.20;99.90;;;;;;7400369;19;20139;-79
2024/01/19 06:50:50;;;;;;;1.73;1.47;;;3.30;99.90;;;;;;7397512;19;20281;-80
2024/01/19 06:53:16;;;;;;;3.50;2.30;;;3.20;99.90;;;;;;7398535;19;20491;-80
2024/01/19 06:55:42;;;;;;;3.73;1.70;;;3.20;99.90;;;;;;7400047;19;20171;-80
2024/01/19 06:58:08;;;;;;;1.67;1.57;;;3.20;99.90;;;;;;7396851;19;20559;-79
2024/01/19 07:00:33;;;;;;;1.43;1.30;;;3.20;99.90;;;;;;7397843;19;20151;-78
2024/01/19 07:02:59;;;;;;;1.53;1.40;;;3.30;99.90;;;;;;7398376;19;20612;-80
2024/01/19 07:05:26;;;;;;;1.77;1.57;;;3.20;99.90;;;;;;7396741;19;20154;-81
2024/01/19 07:07:51;;;;;;;2.67;2.47;;;3.20;99.90;;;;;;7399394;19;20139;-81
2024/01/19 07:10:18;;;;;;;2.33;1.97;;;3.10;99.90;;;;;;7397994;19;20134;-81
2024/01/19 07:12:44;;;;;;;4.67;2.90;;;2.80;99.90;;;;;;7397879;19;20221;-82
2024/01/19 07:15:10;;;;;;;2.57;2.07;;;2.80;99.90;;;;;;7397543;19;20142;-82
2024/01/19 07:17:36;;;;;;;3.77;1.93;;;3.00;99.90;;;;;;7397060;19;20266;-83
2024/01/19 07:20:05;;;;;;;1.60;1.40;;;3.00;99.90;;;;;;7396228;19;20157;-82
2024/01/19 07:22:31;;;;;;;1.23;0.90;;;3.10;99.90;;;;;;7398389;19;20135;-81
2024/01/19 07:24:57;;;;;;;2.37;1.27;;;3.10;99.90;;;;;;7397507;19;20139;-81
2024/01/19 07:27:22;;;;;;;1.47;1.37;;;3.10;99.90;;;;;;7397921;19;20149;-82
2024/01/19 07:29:48;;;;;;;1.60;1.50;;;3.10;99.90;;;;;;7397502;19;20147;-82
2024/01/19 07:32:14;;;;;;;1.70;1.60;;;2.90;99.90;;;;;;7398091;19;20644;-81
2024/01/19 07:34:40;;;;;;;3.47;2.07;;;2.90;99.90;;;;;;7397305;19;20620;-83
2024/01/19 07:37:06;;;;;;;1.70;1.30;;;3.00;99.90;;;;;;7398832;19;20131;-81
2024/01/19 07:39:32;;;;;;;2.30;2.10;;;3.00;99.90;;;;;;7398781;19;20139;-81
2024/01/19 07:41:57;;;;;;;2.37;2.10;;;3.10;99.90;;;;;;7399808;19;20135;-81
2024/01/19 07:44:23;;;;;;;2.33;1.87;;;3.10;99.90;;;;;;7398972;19;20840;-81
2024/01/19 07:46:49;;;;;;;1.70;1.20;;;2.90;99.90;;;;;;7398113;19;20146;-82
2024/01/19 07:49:20;;;;;;;1.97;1.43;;;3.00;99.90;;;;;;7398680;19;20150;-81
2024/01/19 07:51:47;;;;;;;2.50;1.97;;;3.00;99.90;;;;;;7396530;19;20202;-81
2024/01/19 07:54:13;;;;;;;2.17;1.97;;;3.00;99.90;;;;;;7395973;19;20131;-81
2024/01/19 07:56:39;;;;;;;2.27;2.10;;;3.10;99.90;;;;;;7396607;19;20161;-81
2024/01/19 07:59:04;;;;;;;2.50;2.30;;;3.00;99.90;;;;;;7395259;19;20614;-81
2024/01/19 08:01:30;;;;;;;2.97;2.13;;;3.00;99.90;;;;;;7397375;19;20131;-81
2024/01/19 08:03:56;;;;;;;2.50;1.73;;;2.90;99.90;;;;;;7395201;19;20198;-81
2024/01/19 08:06:22;;;;;;;1.77;1.50;;;2.90;99.90;;;;;;7395136;19;20150;-80
2024/01/19 08:08:47;;;;;;;1.63;1.53;;;2.90;99.90;;;;;;7396801;19;20161;-81
2024/01/19 08:11:13;;;;;;;1.80;1.70;;;2.90;99.90;;;;;;7394218;19;20548;-80
2024/01/19 08:13:39;;;;;;;3.30;2.47;;;3.00;99.90;;;;;;7396210;19;20582;-79
2024/01/19 08:16:09;;;;;;;2.07;1.97;;;3.00;99.90;;;;;;7394131;19;20150;-80
2024/01/19 08:18:34;;;;;;;3.07;2.50;;;3.00;99.90;;;;;;7392472;19;20142;-80
2024/01/19 08:21:03;;;;;;;1.97;1.43;;;3.00;99.90;;;;;;7400335;19;20142;-80
2024/01/19 08:23:30;;;;;;;3.30;2.30;;;3.10;99.90;;;;;;7394360;19;20556;-79
2024/01/19 08:25:56;;;;;;;2.97;2.70;;;3.20;99.90;;;;;;7393576;19;20134;-79
2024/01/19 08:28:22;;;;;;;2.63;2.00;;;2.90;99.90;;;;;;7395201;19;20157;-79
2024/01/19 08:30:48;;;;;;;2.50;2.30;;;2.90;99.90;;;;;;7394442;19;20238;-79
2024/01/19 08:33:14;;;;;;;1.60;1.43;;;3.00;99.90;;;;;;7394748;19;20806;-79
2024/01/19 08:35:40;;;;;;;3.60;1.90;;;3.20;99.90;;;;;;7395114;19;20150;-80
2024/01/19 08:38:06;;;;;;;3.77;2.17;;;3.20;99.90;;;;;;7393663;19;20879;-77
2024/01/19 08:40:34;;;;;;;1.40;1.30;;;3.20;99.90;;;;;;7393028;19;20142;-77
2024/01/19 08:43:00;;;;;;;3.73;2.00;;;3.00;99.90;;;;;;7392301;19;20138;-79
2024/01/19 08:45:28;;;;;;;1.77;1.47;;;3.10;99.90;;;;;;7393190;19;20547;-76
2024/01/19 08:47:58;;;;;;;1.57;1.47;;;3.10;99.90;;;;;;7393150;19;20138;-79
2024/01/19 08:50:24;;;;;;;2.50;2.30;;;3.00;99.90;;;;;;7397672;19;20162;-78
2024/01/19 08:52:50;;;;;;;2.30;1.93;;;3.00;99.90;;;;;;7392022;19;20154;-78
2024/01/19 08:55:17;;;;;;;1.63;1.53;;;3.10;99.90;;;;;;7393618;19;20149;-80
2024/01/19 08:57:43;;;;;;;2.77;2.00;;;3.10;99.90;;;;;;7392688;19;20142;-79
2024/01/19 09:00:10;;;;;;;2.23;1.83;;;3.10;99.90;;;;;;7390257;19;20163;-78
2024/01/19 09:02:36;;;;;;;2.17;1.40;;;3.10;99.90;;;;;;7390045;19;20130;-79
2024/01/19 09:05:05;;;;;;;1.77;1.67;;;3.00;99.90;;;;;;7392879;19;20151;-80
2024/01/19 09:07:31;;;;;;;2.70;2.50;;;3.20;99.90;;;;;;7391914;19;20139;-79
2024/01/19 09:09:56;;;;;;;2.23;2.03;;;3.10;99.90;;;;;;7393642;19;20238;-80
2024/01/19 09:12:22;;;;;;;2.77;2.37;;;3.20;99.90;;;;;;7392143;19;20182;-80
2024/01/19 09:14:48;;;;;;;2.00;1.80;;;3.20;99.90;;;;;;7392231;19;20560;-79
2024/01/19 09:17:14;;;;;;;4.93;2.00;;;3.20;99.90;;;;;;7390965;19;20152;-79
2024/01/19 09:19:39;;;;;;;3.00;1.40;;;3.20;99.90;;;;;;7389484;19;20632;-80
2024/01/19 09:22:05;;;;;;;2.97;2.00;;;3.10;99.90;;;;;;7392356;19;20180;-80
2024/01/19 09:24:31;;;;;;;3.67;3.13;;;3.10;99.90;;;;;;7391820;19;20145;-80
2024/01/19 09:26:57;;;;;;;2.53;1.93;;;3.10;99.90;;;;;;7393668;19;20142;-80
2024/01/19 09:29:23;;;;;;;2.23;1.73;;;3.20;99.90;;;;;;7395565;19;20147;-79
2024/01/19 09:31:48;;;;;;;2.20;2.00;;;3.20;99.90;;;;;;7400652;19;20161;-79
2024/01/19 09:34:14;;;;;;;2.27;2.10;;;3.20;99.90;;;;;;7399440;19;20151;-81
2024/01/19 09:36:41;;;;;;;2.23;1.93;;;3.20;99.90;;;;;;7405171;19;20486;-82
2024/01/19 09:39:07;;;;;;;2.27;2.07;;;3.20;99.90;;;;;;7400163;19;20139;-79
2024/01/19 09:41:39;;;;;;;3.90;2.30;;;3.30;99.90;;;;;;7401449;19;20533;-82
2024/01/19 09:44:10;;;;;;;2.80;2.37;;;3.30;99.90;;;;;;7402862;19;20147;-83
2024/01/19 09:46:51;;;;;;;1.47;1.37;;;3.30;99.90;;;;;;7400063;19;20164;-80
2024/01/19 09:49:35;;;;;;;2.00;1.83;;;3.40;99.90;;;;;;7399145;19;20146;-81
2024/01/19 09:52:02;;;;;;;2.37;2.17;;;3.40;99.90;;;;;;7399461;19;20131;-82
2024/01/19 09:54:33;;;;;;;3.47;2.23;;;3.40;99.90;;;;;;7399062;19;20245;-80
2024/01/19 09:57:01;;;;;;;2.30;2.07;;;3.40;99.90;;;;;;7398421;19;20139;-81
2024/01/19 09:59:32;;;;;;;1.83;1.63;;;3.40;99.90;;;;;;7397235;19;20155;-79
2024/01/19 10:01:58;;;;;;;3.37;1.93;;;3.70;99.90;;;;;;7398086;19;20126;-79
2024/01/19 10:04:25;;;;;;;3.30;2.43;;;3.50;99.90;;;;;;7396538;19;20198;-82
2024/01/19 10:06:51;;;;;;;1.93;1.57;;;3.40;99.90;;;;;;7398368;19;20146;-83
2024/01/19 10:09:22;;;;;;;2.20;1.77;;;3.40;99.90;;;;;;7407910;19;20149;-83
2024/01/19 10:11:54;;;;;;;2.77;2.57;;;3.50;99.90;;;;;;7399117;19;20146;-80
2024/01/19 10:14:22;;;;;;;3.77;3.10;;;3.30;99.90;;;;;;7396569;19;20202;-79
2024/01/19 10:16:49;;;;;;;4.70;2.30;;;3.30;99.90;;;;;;7397423;19;20258;-80
2024/01/19 10:19:16;;;;;;;3.60;2.40;;;3.40;99.90;;;;;;7396694;19;20213;-81
2024/01/19 10:21:43;;;;;;;2.30;1.70;;;3.50;99.90;;;;;;7397376;19;20142;-80
2024/01/19 10:24:11;;;;;;;2.70;2.40;;;3.70;99.90;;;;;;7398980;19;20191;-81
2024/01/19 10:26:37;;;;;;;2.83;2.00;;;3.70;99.90;;;;;;7396729;19;20149;-81
2024/01/19 10:29:14;;;;;;;2.83;1.87;;;3.80;99.90;;;;;;7397775;19;20147;-80
2024/01/19 10:31:42;;;;;;;2.13;1.40;;;3.70;99.90;;;;;;7398604;19;20179;-82
2024/01/19 10:34:21;;;;;;;3.60;3.17;;;3.90;99.90;;;;;;7398178;19;20430;-81
2024/01/19 10:36:48;;;;;;;3.70;2.20;;;3.80;99.90;;;;;;7397374;19;20226;-81
2024/01/19 10:39:26;;;;;;;2.90;2.07;;;3.40;99.90;;;;;;7394893;19;20162;-79
2024/01/19 10:42:05;;;;;;;2.67;2.47;;;3.40;99.90;;;;;;7395236;19;20575;-81
2024/01/19 10:44:32;;;;;;;2.67;2.33;;;3.60;99.90;;;;;;7398056;19;20169;-81
2024/01/19 10:46:58;;;;;;;1.87;1.73;;;3.80;99.90;;;;;;7397363;19;20165;-82
2024/01/19 10:49:24;;;;;;;2.50;2.10;;;3.80;99.90;;;;;;7400777;19;20150;-81
2024/01/19 10:51:52;;;;;;;1.70;1.57;;;4.00;99.90;;;;;;7399569;19;20146;-81
2024/01/19 10:54:26;;;;;;;2.50;1.80;;;3.90;99.90;;;;;;7400331;19;20147;-81
2024/01/19 10:57:05;;;;;;;2.53;2.33;;;3.80;99.90;;;;;;7397487;19;20146;-81
2024/01/19 10:59:32;;;;;;;2.30;2.10;;;3.90;99.90;;;;;;7396293;19;20200;-82
2024/01/19 11:02:01;;;;;;;2.43;2.03;;;4.10;99.90;;;;;;7396142;19;20131;-82
2024/01/19 11:04:27;;;;;;;3.50;2.17;;;3.90;99.90;;;;;;7397847;19;20159;-81
2024/01/19 11:06:53;;;;;;;2.57;2.37;;;4.00;99.90;;;;;;7396870;19;20600;-81
2024/01/19 11:09:19;;;;;;;2.50;2.30;;;4.30;99.90;;;;;;7398718;19;20135;-81
2024/01/19 11:11:51;;;;;;;3.20;2.67;;;4.40;99.90;;;;;;7398115;19;20748;-81
2024/01/19 11:14:20;;;;;;;2.83;2.27;;;4.40;99.90;;;;;;7398443;19;20142;-82
2024/01/19 11:16:47;;;;;;;2.50;2.13;;;4.20;99.90;;;;;;7401059;19;20173;-81
2024/01/19 11:19:16;;;;;;;2.13;1.93;;;3.80;99.90;;;;;;7394785;19;20134;-81
2024/01/19 11:21:44;;;;;;;2.40;2.07;;;3.90;99.90;;;;;;7398234;19;20134;-79
2024/01/19 11:24:12;;;;;;;3.63;2.17;;;4.10;99.90;;;;;;7396681;19;20210;-81
2024/01/19 11:26:54;;;;;;;2.50;2.20;;;4.20;99.90;;;;;;7394814;19;20491;-81
2024/01/19 11:29:31;;;;;;;2.30;1.87;;;4.20;99.90;;;;;;7398724;19;20126;-80
2024/01/19 11:31:58;;;;;;;1.70;1.60;;;4.40;99.90;;;;;;7395225;19;20134;-80
2024/01/19 11:34:50;;;;;;;1.63;1.53;;;4.40;99.90;;;;;;7393848;19;20143;-81
2024/01/19 11:37:45;;;;;;;2.57;1.40;;;4.10;99.90;;;;;;7395298;19;20238;-81
2024/01/19 11:40:32;;;;;;;7.73;3.43;;;4.20;99.90;;;;;;7395153;19;20134;-81
2024/01/19 11:42:58;;;;;;;2.07;1.80;;;4.20;99.90;;;;;;7391429;19;20516;-80
2024/01/19 11:45:27;;;;;;;2.47;2.07;;;4.30;99.90;;;;;;7401207;19;20611;-81
2024/01/19 11:47:54;;;;;;;2.27;1.73;;;4.20;99.90;;;;;;7394123;19;20130;-80
2024/01/19 11:50:43;;;;;;;2.63;1.77;;;4.30;99.90;;;;;;7394626;19;20170;-81
2024/01/19 11:53:10;;;;;;;1.73;1.20;;;4.40;99.90;;;;;;7392997;19;20138;-79
2024/01/19 11:55:38;;;;;;;1.00;0.93;;;4.60;99.90;;;;;;7394459;19;20135;-80
2024/01/19 11:58:34;;;;;;;1.63;1.53;;;4.50;99.90;;;;;;7395699;19;20138;-79
2024/01/19 12:01:03;;;;;;;0.70;0.70;;;4.70;99.90;;;;;;7388856;19;20180;-80
2024/01/19 12:03:29;;;;;;;1.70;1.60;;;4.80;99.90;;;;;;7393039;19;20584;-80
2024/01/19 12:06:00;;;;;;;1.60;1.47;;;5.00;99.90;;;;;;7392140;19;20508;-80
2024/01/19 12:08:26;;;;;;;0.87;0.87;;;5.20;99.90;;;;;;7393786;19;20174;-80
2024/01/19 12:11:06;;;;;;;1.53;1.40;;;5.30;99.90;;;;;;7290916;19;129611;-80
2024/01/19 12:13:33;;;;;;;2.60;1.63;;;5.30;99.90;;;;;;7372510;19;20201;-79
2024/01/19 12:16:00;;;;;;;1.37;1.27;;;5.20;99.90;;;;;;7395877;19;20214;-80
2024/01/19 12:18:27;;;;;;;1.77;1.10;;;5.10;99.90;;;;;;7393080;19;20141;-80
2024/01/19 12:20:56;;;;;;;1.23;1.13;;;4.80;99.90;;;;;;7391356;19;20146;-80
2024/01/19 12:23:23;;;;;;;1.27;0.97;;;4.80;99.90;;;;;;7393449;19;20801;-80
2024/01/19 12:25:54;;;;;;;1.30;1.20;;;4.80;99.90;;;;;;7392310;19;20139;-80
2024/01/19 12:28:20;;;;;;;0.90;0.90;;;4.70;99.90;;;;;;7393504;19;20968;-81
2024/01/19 12:30:46;;;;;;;0.83;0.60;;;4.80;99.90;;;;;;7391715;19;20138;-79
2024/01/19 12:33:25;;;;;;;0.70;0.70;;;4.90;99.90;;;;;;7391970;19;20130;-81
2024/01/19 12:36:03;;;;;;;0.77;0.77;;;5.00;99.90;;;;;;7393813;19;20138;-81
2024/01/19 12:38:30;;;;;;;0.80;0.80;;;5.20;99.90;;;;;;7393066;19;20119;-80
2024/01/19 12:40:57;;;;;;;1.07;0.83;;;5.10;99.90;;;;;;7391232;19;20643;-80
2024/01/19 12:43:27;;;;;;;1.20;1.10;;;4.80;99.90;;;;;;7393306;19;20142;-81
2024/01/19 12:46:01;;;;;;;1.50;1.20;;;4.90;99.90;;;;;;7393675;19;20544;-79
2024/01/19 12:48:26;;;;;;;1.50;1.27;;;5.10;99.90;;;;;;7391003;19;20874;-79
2024/01/19 13:22:57;;;;;;;2.10;1.63;;;4.80;99.90;;;;;;7401238;19;20631;-83
2024/01/19 13:25:24;;;;;;;1.17;1.10;;;5.00;99.90;;;;;;7401852;19;20163;-81
2024/01/19 13:27:51;;;;;;;1.67;1.20;;;5.00;99.90;;;;;;7398828;19;20157;-79
2024/01/19 13:30:17;;;;;;;2.33;1.70;;;5.00;99.90;;;;;;7404037;19;20505;-79